createdAt,value
2016-07-01T00:00:03.557Z,17.14
2016-07-01T00:00:12.945Z,17.06
2016-07-01T00:00:23.583Z,17.06
2016-07-01T00:00:32.935Z,17.04
2016-07-01T00:00:43.575Z,17.04
2016-07-01T00:00:53.595Z,17.07
2016-07-01T00:01:03.623Z,17.01
2016-07-01T00:01:13.589Z,17.01
2016-07-01T00:01:23.602Z,17.03
2016-07-01T00:01:32.986Z,17.01
2016-07-01T00:01:43.614Z,17.03
2016-07-01T00:01:53.657Z,17.03
2016-07-01T00:02:03.626Z,16.98
2016-07-01T00:02:13.622Z,17.03
2016-07-01T00:02:23.004Z,17.06
2016-07-01T00:02:33.649Z,16.98
2016-07-01T00:02:43.649Z,17.01
2016-07-01T00:02:53.653Z,17.04
2016-07-01T00:03:03.653Z,16.97
2016-07-01T00:03:13.666Z,17
2016-07-01T00:03:23.024Z,17.06
2016-07-01T00:03:33.673Z,17.01
2016-07-01T00:03:43.705Z,17.01
2016-07-01T00:03:53.054Z,17.01
2016-07-01T00:04:03.695Z,17.04
2016-07-01T00:04:13.693Z,17.01
2016-07-01T00:04:23.697Z,17.03
2016-07-01T00:04:33.706Z,17
2016-07-01T00:04:43.708Z,17.01
2016-07-01T00:04:53.071Z,16.96
2016-07-01T00:05:03.715Z,17.01
2016-07-01T00:05:13.718Z,17
2016-07-01T00:05:23.726Z,16.96
2016-07-01T00:05:33.731Z,17.01
2016-07-01T00:05:43.747Z,16.94
2016-07-01T00:05:53.745Z,17.01
2016-07-01T00:06:03.750Z,16.93
2016-07-01T00:06:13.760Z,16.97
2016-07-01T00:06:23.761Z,16.96
2016-07-01T00:06:33.764Z,16.93
2016-07-01T00:06:43.778Z,16.96
2016-07-01T00:06:53.141Z,16.93
2016-07-01T00:07:03.148Z,16.94
2016-07-01T00:07:13.154Z,16.96
2016-07-01T00:07:23.789Z,17
2016-07-01T00:07:33.798Z,17
2016-07-01T00:07:43.808Z,16.94
2016-07-01T00:07:53.813Z,16.94
2016-07-01T00:08:03.822Z,17
2016-07-01T00:08:13.184Z,16.91
2016-07-01T00:08:23.827Z,16.96
2016-07-01T00:08:33.200Z,16.96
2016-07-01T00:08:43.840Z,16.96
2016-07-01T00:08:53.842Z,16.98
2016-07-01T00:09:03.219Z,16.98
2016-07-01T00:09:13.853Z,17.01
2016-07-01T00:09:23.225Z,16.93
2016-07-01T00:09:33.862Z,16.97
2016-07-01T00:09:43.235Z,16.89
2016-07-01T00:09:53.883Z,16.89
2016-07-01T00:10:03.885Z,16.91
2016-07-01T00:10:13.932Z,16.93
2016-07-01T00:10:23.895Z,16.93
2016-07-01T00:10:33.902Z,16.97
2016-07-01T00:10:43.269Z,16.88
2016-07-01T00:10:53.912Z,16.88
2016-07-01T00:11:03.907Z,16.86
2016-07-01T00:11:13.917Z,16.91
2016-07-01T00:11:23.286Z,16.91
2016-07-01T00:11:33.923Z,16.88
2016-07-01T00:11:43.947Z,16.91
2016-07-01T00:11:53.302Z,16.93
2016-07-01T00:12:03.938Z,16.93
2016-07-01T00:12:13.943Z,16.85
2016-07-01T00:12:23.961Z,16.86
2016-07-01T00:12:33.321Z,16.93
2016-07-01T00:12:43.330Z,16.88
2016-07-01T00:12:53.978Z,16.93
2016-07-01T00:13:03.972Z,16.93
2016-07-01T00:13:13.985Z,16.86
2016-07-01T00:13:23.990Z,16.96
2016-07-01T00:13:33.993Z,16.91
2016-07-01T00:13:43.394Z,16.94
2016-07-01T00:13:54.028Z,16.91
2016-07-01T00:14:04.004Z,16.91
2016-07-01T00:14:14.015Z,16.94
2016-07-01T00:14:24.029Z,16.79
2016-07-01T00:14:33.390Z,16.79
2016-07-01T00:14:44.030Z,16.91
2016-07-01T00:14:54.030Z,16.85
2016-07-01T00:15:04.046Z,16.81
2016-07-01T00:15:14.062Z,16.82
2016-07-01T00:15:24.057Z,16.83
2016-07-01T00:15:34.055Z,16.79
2016-07-01T00:15:44.065Z,16.85
2016-07-01T00:15:53.435Z,16.79
2016-07-01T00:16:04.075Z,16.78
2016-07-01T00:16:13.444Z,16.79
2016-07-01T00:16:24.079Z,16.91
2016-07-01T00:16:33.452Z,16.78
2016-07-01T00:16:44.107Z,16.76
2016-07-01T00:16:54.100Z,16.79
2016-07-01T00:17:04.110Z,16.83
2016-07-01T00:17:13.483Z,16.85
2016-07-01T00:17:23.474Z,16.81
2016-07-01T00:17:34.127Z,16.79
2016-07-01T00:17:44.120Z,16.85
2016-07-01T00:17:53.497Z,16.79
2016-07-01T00:18:04.130Z,16.78
2016-07-01T00:18:14.132Z,16.78
2016-07-01T00:18:24.142Z,16.85
2016-07-01T00:18:34.157Z,16.91
2016-07-01T00:18:44.159Z,16.86
2016-07-01T00:18:54.176Z,16.81
2016-07-01T00:19:04.164Z,16.81
2016-07-01T00:19:14.176Z,16.83
2016-07-01T00:19:24.186Z,16.82
2016-07-01T00:19:33.553Z,16.78
2016-07-01T00:19:43.570Z,16.76
2016-07-01T00:19:54.197Z,16.78
2016-07-01T00:20:03.560Z,16.79
2016-07-01T00:20:14.222Z,16.81
2016-07-01T00:20:23.576Z,16.82
2016-07-01T00:20:34.213Z,16.75
2016-07-01T00:20:43.589Z,16.78
2016-07-01T00:20:54.228Z,16.75
2016-07-01T00:21:03.591Z,16.83
2016-07-01T00:21:13.596Z,16.75
2016-07-01T00:21:24.246Z,16.73
2016-07-01T00:21:34.251Z,16.79
2016-07-01T00:21:44.259Z,16.73
2016-07-01T00:21:54.266Z,16.71
2016-07-01T00:22:04.268Z,16.76
2016-07-01T00:22:14.264Z,16.81
2016-07-01T00:22:23.639Z,16.76
2016-07-01T00:22:34.287Z,16.76
2016-07-01T00:22:44.288Z,16.75
2016-07-01T00:22:54.288Z,16.79
2016-07-01T00:23:04.290Z,16.78
2016-07-01T00:23:14.298Z,16.73
2016-07-01T00:23:24.309Z,16.7
2016-07-01T00:23:33.694Z,16.75
2016-07-01T00:23:44.331Z,16.79
2016-07-01T00:23:53.690Z,16.7
2016-07-01T00:24:04.333Z,16.68
2016-07-01T00:24:14.342Z,16.76
2016-07-01T00:24:24.350Z,16.71
2016-07-01T00:24:34.346Z,16.61
2016-07-01T00:24:44.351Z,16.66
2016-07-01T00:24:54.359Z,16.71
2016-07-01T00:25:04.355Z,16.73
2016-07-01T00:25:14.363Z,16.71
2016-07-01T00:25:24.367Z,16.64
2016-07-01T00:25:34.378Z,16.68
2016-07-01T00:25:44.391Z,16.7
2016-07-01T00:25:54.390Z,16.67
2016-07-01T00:26:04.395Z,16.7
2016-07-01T00:26:13.772Z,16.71
2016-07-01T00:26:24.413Z,16.66
2016-07-01T00:26:34.414Z,16.71
2016-07-01T00:26:44.449Z,16.76
2016-07-01T00:26:53.782Z,16.7
2016-07-01T00:27:04.432Z,16.71
2016-07-01T00:27:13.793Z,16.73
2016-07-01T00:27:23.802Z,16.73
2016-07-01T00:27:34.441Z,16.67
2016-07-01T00:27:44.457Z,16.73
2016-07-01T00:27:54.449Z,16.67
2016-07-01T00:28:03.838Z,16.66
2016-07-01T00:28:13.827Z,16.71
2016-07-01T00:28:24.469Z,16.76
2016-07-01T00:28:34.480Z,16.73
2016-07-01T00:28:43.844Z,16.68
2016-07-01T00:28:54.484Z,16.7
2016-07-01T00:29:04.484Z,16.78
2016-07-01T00:29:14.493Z,16.68
2016-07-01T00:29:24.503Z,16.7
2016-07-01T00:29:34.507Z,16.61
2016-07-01T00:29:43.880Z,16.73
2016-07-01T00:29:54.515Z,16.67
2016-07-01T00:30:03.888Z,16.66
2016-07-01T00:30:14.534Z,16.63
2016-07-01T00:30:24.533Z,16.61
2016-07-01T00:30:33.898Z,16.64
2016-07-01T00:30:43.908Z,16.68
2016-07-01T00:30:53.901Z,16.66
2016-07-01T00:31:04.541Z,16.66
2016-07-01T00:31:14.579Z,16.71
2016-07-01T00:31:24.560Z,16.68
2016-07-01T00:31:33.928Z,16.66
2016-07-01T00:31:44.583Z,16.64
2016-07-01T00:31:54.590Z,16.63
2016-07-01T00:32:04.588Z,16.63
2016-07-01T00:32:14.610Z,16.66
2016-07-01T00:32:24.618Z,16.64
2016-07-01T00:32:34.620Z,16.7
2016-07-01T00:32:44.604Z,16.68
2016-07-01T00:32:54.607Z,16.64
2016-07-01T00:33:04.066Z,16.66
2016-07-01T00:33:14.634Z,16.68
2016-07-01T00:33:23.997Z,16.68
2016-07-01T00:33:34.629Z,16.63
2016-07-01T00:33:44.646Z,16.68
2016-07-01T00:33:54.650Z,16.63
2016-07-01T00:34:04.656Z,16.7
2016-07-01T00:34:14.655Z,16.66
2016-07-01T00:34:24.659Z,16.66
2016-07-01T00:34:34.023Z,16.66
2016-07-01T00:34:44.672Z,16.67
2016-07-01T00:34:54.679Z,16.58
2016-07-01T00:35:04.675Z,16.68
2016-07-01T00:35:14.045Z,16.67
2016-07-01T00:35:24.061Z,16.67
2016-07-01T00:35:34.919Z,16.64
2016-07-01T00:35:44.708Z,16.67
2016-07-01T00:35:54.698Z,16.63
2016-07-01T00:36:04.076Z,16.61
2016-07-01T00:36:14.721Z,16.64
2016-07-01T00:36:24.086Z,16.66
2016-07-01T00:36:34.090Z,16.64
2016-07-01T00:36:44.739Z,16.6
2016-07-01T00:36:54.746Z,16.58
2016-07-01T00:37:04.105Z,16.68
2016-07-01T00:37:14.751Z,16.61
2016-07-01T00:37:24.752Z,16.64
2016-07-01T00:37:34.765Z,16.58
2016-07-01T00:37:44.768Z,16.6
2016-07-01T00:37:54.763Z,16.61
2016-07-01T00:38:04.797Z,16.66
2016-07-01T00:38:14.821Z,16.57
2016-07-01T00:38:24.813Z,16.63
2016-07-01T00:38:34.165Z,16.63
2016-07-01T00:38:44.797Z,16.57
2016-07-01T00:38:54.802Z,16.6
2016-07-01T00:39:04.807Z,16.57
2016-07-01T00:39:14.828Z,16.66
2016-07-01T00:39:24.819Z,16.56
2016-07-01T00:39:34.824Z,16.56
2016-07-01T00:39:44.835Z,16.58
2016-07-01T00:39:54.838Z,16.58
2016-07-01T00:40:04.208Z,16.7
2016-07-01T00:40:14.852Z,16.53
2016-07-01T00:40:24.851Z,16.56
2016-07-01T00:40:34.862Z,16.56
2016-07-01T00:40:44.867Z,16.58
2016-07-01T00:40:54.228Z,16.57
2016-07-01T00:41:04.873Z,16.58
2016-07-01T00:41:14.883Z,16.56
2016-07-01T00:41:24.260Z,16.6
2016-07-01T00:41:34.891Z,16.58
2016-07-01T00:41:44.897Z,16.6
2016-07-01T00:41:54.266Z,16.57
2016-07-01T00:42:04.900Z,16.6
2016-07-01T00:42:14.907Z,16.56
2016-07-01T00:42:24.287Z,16.58
2016-07-01T00:42:34.919Z,16.64
2016-07-01T00:42:44.925Z,16.57
2016-07-01T00:42:54.934Z,16.63
2016-07-01T00:43:04.296Z,16.6
2016-07-01T00:43:14.946Z,16.63
2016-07-01T00:43:24.318Z,16.58
2016-07-01T00:43:34.959Z,16.5
2016-07-01T00:43:44.957Z,16.6
2016-07-01T00:43:54.957Z,16.58
2016-07-01T00:44:04.969Z,16.52
2016-07-01T00:44:14.336Z,16.64
2016-07-01T00:44:24.968Z,16.58
2016-07-01T00:44:34.345Z,16.64
2016-07-01T00:44:44.987Z,16.56
2016-07-01T00:44:54.997Z,16.64
2016-07-01T00:45:04.999Z,16.6
2016-07-01T00:45:15.003Z,16.61
2016-07-01T00:45:25.014Z,16.64
2016-07-01T00:45:35.010Z,16.6
2016-07-01T00:45:44.378Z,16.6
2016-07-01T00:45:54.386Z,16.63
2016-07-01T00:46:05.027Z,16.64
2016-07-01T00:46:15.034Z,16.63
2016-07-01T00:46:24.405Z,16.57
2016-07-01T00:46:35.041Z,16.68
2016-07-01T00:46:45.058Z,16.66
2016-07-01T00:46:54.412Z,16.66
2016-07-01T00:47:05.057Z,16.6
2016-07-01T00:47:15.093Z,16.6
2016-07-01T00:47:25.089Z,16.66
2016-07-01T00:47:35.092Z,16.61
2016-07-01T00:47:44.447Z,16.66
2016-07-01T00:47:55.095Z,16.6
2016-07-01T00:48:05.093Z,16.64
2016-07-01T00:48:15.097Z,16.7
2016-07-01T00:48:25.112Z,16.66
2016-07-01T00:48:35.111Z,16.64
2016-07-01T00:48:45.116Z,16.68
2016-07-01T00:48:55.124Z,16.64
2016-07-01T00:49:05.131Z,16.67
2016-07-01T00:49:15.128Z,16.66
2016-07-01T00:49:25.132Z,16.68
2016-07-01T00:49:34.512Z,16.67
2016-07-01T00:49:44.505Z,16.71
2016-07-01T00:49:54.519Z,16.71
2016-07-01T00:50:05.162Z,16.7
2016-07-01T00:50:15.178Z,16.68
2016-07-01T00:50:25.175Z,16.67
2016-07-01T00:50:35.176Z,16.63
2016-07-01T00:50:45.181Z,16.63
2016-07-01T00:50:55.202Z,16.7
2016-07-01T00:51:05.185Z,16.68
2016-07-01T00:51:15.200Z,16.68
2016-07-01T00:51:25.202Z,16.73
2016-07-01T00:51:35.209Z,16.71
2016-07-01T00:51:45.213Z,16.76
2016-07-01T00:51:55.223Z,16.61
2016-07-01T00:52:05.221Z,16.68
2016-07-01T00:52:14.597Z,16.71
2016-07-01T00:52:25.234Z,16.76
2016-07-01T00:52:35.240Z,16.67
2016-07-01T00:52:45.249Z,16.68
2016-07-01T00:52:55.257Z,16.67
2016-07-01T00:53:04.621Z,16.66
2016-07-01T00:53:15.254Z,16.78
2016-07-01T00:53:24.627Z,16.71
2016-07-01T00:53:34.642Z,16.64
2016-07-01T00:53:45.277Z,16.67
2016-07-01T00:53:55.280Z,16.73
2016-07-01T00:54:05.298Z,16.7
2016-07-01T00:54:15.296Z,16.78
2016-07-01T00:54:25.297Z,16.73
2016-07-01T00:54:35.306Z,16.75
2016-07-01T00:54:45.308Z,16.63
2016-07-01T00:54:54.687Z,16.64
2016-07-01T00:55:05.319Z,16.66
2016-07-01T00:55:14.692Z,16.71
2016-07-01T00:55:25.337Z,16.63
2016-07-01T00:55:35.336Z,16.66
2016-07-01T00:55:45.347Z,16.75
2016-07-01T00:55:54.709Z,16.66
2016-07-01T00:56:04.710Z,16.63
2016-07-01T00:56:15.365Z,16.64
2016-07-01T00:56:25.363Z,16.66
2016-07-01T00:56:35.373Z,16.68
2016-07-01T00:56:44.731Z,16.64
2016-07-01T00:56:55.384Z,16.66
2016-07-01T00:57:05.380Z,16.7
2016-07-01T00:57:15.385Z,16.67
2016-07-01T00:57:25.394Z,16.7
2016-07-01T00:57:35.397Z,16.64
2016-07-01T00:57:45.402Z,16.64
2016-07-01T00:57:55.422Z,16.64
2016-07-01T00:58:04.793Z,16.66
2016-07-01T00:58:15.427Z,16.63
2016-07-01T00:58:25.431Z,16.61
2016-07-01T00:58:35.432Z,16.68
2016-07-01T00:58:45.446Z,16.63
2016-07-01T00:58:55.454Z,16.66
2016-07-01T00:59:05.450Z,16.63
2016-07-01T00:59:15.457Z,16.64
2016-07-01T00:59:25.460Z,16.66
2016-07-01T00:59:35.464Z,16.7
2016-07-01T00:59:45.471Z,16.66
2016-07-01T00:59:54.836Z,16.63
2016-07-01T01:00:05.476Z,16.64
2016-07-01T01:00:15.482Z,16.58
2016-07-01T01:00:25.491Z,16.64
2016-07-01T01:00:35.507Z,16.67
2016-07-01T01:00:44.866Z,16.64
2016-07-01T01:00:55.519Z,16.66
2016-07-01T01:01:05.517Z,16.61
2016-07-01T01:01:15.530Z,16.63
2016-07-01T01:01:25.519Z,16.66
2016-07-01T01:01:35.534Z,16.6
2016-07-01T01:01:45.531Z,16.68
2016-07-01T01:01:55.546Z,16.63
2016-07-01T01:02:05.551Z,16.6
2016-07-01T01:02:14.916Z,16.6
2016-07-01T01:02:24.916Z,16.64
2016-07-01T01:02:34.926Z,16.63
2016-07-01T01:02:45.565Z,16.58
2016-07-01T01:02:55.590Z,16.64
2016-07-01T01:03:05.580Z,16.67
2016-07-01T01:03:15.609Z,16.61
2016-07-01T01:03:24.947Z,16.6
2016-07-01T01:03:35.595Z,16.6
2016-07-01T01:03:45.596Z,16.61
2016-07-01T01:03:54.959Z,16.57
2016-07-01T01:04:05.614Z,16.63
2016-07-01T01:04:15.615Z,16.67
2016-07-01T01:04:25.618Z,16.57
2016-07-01T01:04:35.625Z,16.67
2016-07-01T01:04:45.646Z,16.63
2016-07-01T01:04:55.637Z,16.6
2016-07-01T01:05:05.010Z,16.64
2016-07-01T01:05:15.011Z,16.64
2016-07-01T01:05:25.650Z,16.67
2016-07-01T01:05:35.660Z,16.64
2016-07-01T01:05:45.682Z,16.68
2016-07-01T01:05:55.672Z,16.64
2016-07-01T01:06:05.662Z,16.66
2016-07-01T01:06:15.680Z,16.61
2016-07-01T01:06:25.694Z,16.64
2016-07-01T01:06:35.686Z,16.63
2016-07-01T01:06:45.694Z,16.63
2016-07-01T01:06:55.057Z,16.63
2016-07-01T01:07:05.084Z,16.66
2016-07-01T01:07:15.701Z,16.68
2016-07-01T01:07:25.709Z,16.68
2016-07-01T01:07:35.722Z,16.63
2016-07-01T01:07:45.100Z,16.63
2016-07-01T01:07:55.738Z,16.63
2016-07-01T01:08:05.728Z,16.61
2016-07-01T01:08:15.751Z,16.66
2016-07-01T01:08:25.114Z,16.61
2016-07-01T01:08:35.759Z,16.64
2016-07-01T01:08:45.135Z,16.7
2016-07-01T01:08:55.764Z,16.63
2016-07-01T01:09:05.774Z,16.71
2016-07-01T01:09:15.131Z,16.63
2016-07-01T01:09:25.782Z,16.66
2016-07-01T01:09:35.786Z,16.64
2016-07-01T01:09:45.783Z,16.68
2016-07-01T01:09:55.789Z,16.68
2016-07-01T01:10:05.802Z,16.63
2016-07-01T01:10:15.177Z,16.78
2016-07-01T01:10:25.813Z,16.68
2016-07-01T01:10:35.823Z,16.66
2016-07-01T01:10:45.826Z,16.7
2016-07-01T01:10:55.831Z,16.68
2016-07-01T01:11:05.830Z,16.71
2016-07-01T01:11:15.854Z,16.66
2016-07-01T01:11:25.204Z,16.63
2016-07-01T01:11:35.841Z,16.67
2016-07-01T01:11:45.854Z,16.66
2016-07-01T01:11:55.857Z,16.68
2016-07-01T01:12:05.854Z,16.67
2016-07-01T01:12:15.867Z,16.66
2016-07-01T01:12:25.891Z,16.71
2016-07-01T01:12:35.879Z,16.71
2016-07-01T01:12:45.878Z,16.68
2016-07-01T01:12:55.895Z,16.68
2016-07-01T01:13:05.898Z,16.68
2016-07-01T01:13:15.906Z,16.76
2016-07-01T01:13:25.270Z,16.61
2016-07-01T01:13:35.930Z,16.73
2016-07-01T01:13:45.968Z,16.67
2016-07-01T01:13:55.922Z,16.75
2016-07-01T01:14:05.927Z,16.66
2016-07-01T01:14:15.939Z,16.68
2016-07-01T01:14:25.302Z,16.64
2016-07-01T01:14:35.937Z,16.71
2016-07-01T01:14:45.974Z,16.63
2016-07-01T01:14:55.333Z,16.66
2016-07-01T01:15:05.957Z,16.76
2016-07-01T01:15:15.362Z,16.67
2016-07-01T01:15:25.995Z,16.75
2016-07-01T01:15:35.975Z,16.71
2016-07-01T01:15:45.990Z,16.78
2016-07-01T01:15:55.992Z,16.76
2016-07-01T01:16:05.995Z,16.71
2016-07-01T01:16:15.375Z,16.76
2016-07-01T01:16:26.006Z,16.81
2016-07-01T01:16:36.006Z,16.82
2016-07-01T01:16:46.022Z,16.73
2016-07-01T01:16:56.031Z,16.73
2016-07-01T01:17:06.028Z,16.73
2016-07-01T01:17:16.037Z,16.78
2016-07-01T01:17:26.038Z,16.73
2016-07-01T01:17:36.038Z,16.73
2016-07-01T01:17:46.052Z,16.75
2016-07-01T01:17:56.082Z,16.76
2016-07-01T01:18:05.415Z,16.7
2016-07-01T01:18:16.075Z,16.81
2016-07-01T01:18:26.057Z,16.79
2016-07-01T01:18:35.430Z,16.79
2016-07-01T01:18:46.069Z,16.75
2016-07-01T01:18:56.084Z,16.79
2016-07-01T01:19:06.079Z,16.81
2016-07-01T01:19:16.094Z,16.79
2016-07-01T01:19:26.098Z,16.85
2016-07-01T01:19:36.102Z,16.82
2016-07-01T01:19:46.110Z,16.76
2016-07-01T01:19:56.141Z,16.78
2016-07-01T01:20:06.117Z,16.85
2016-07-01T01:20:15.491Z,16.81
2016-07-01T01:20:26.132Z,16.83
2016-07-01T01:20:36.144Z,16.83
2016-07-01T01:20:45.518Z,16.91
2016-07-01T01:20:56.143Z,16.79
2016-07-01T01:21:06.152Z,16.83
2016-07-01T01:21:15.518Z,16.71
2016-07-01T01:21:26.164Z,16.82
2016-07-01T01:21:36.165Z,16.83
2016-07-01T01:21:46.169Z,16.85
2016-07-01T01:21:56.175Z,16.78
2016-07-01T01:22:05.555Z,16.79
2016-07-01T01:22:16.191Z,16.79
2016-07-01T01:22:25.551Z,16.79
2016-07-01T01:22:35.555Z,16.88
2016-07-01T01:22:45.562Z,16.93
2016-07-01T01:22:56.203Z,16.81
2016-07-01T01:23:05.591Z,16.88
2016-07-01T01:23:16.228Z,16.88
2016-07-01T01:23:26.234Z,16.89
2016-07-01T01:23:36.234Z,16.94
2016-07-01T01:23:46.237Z,16.96
2016-07-01T01:23:56.243Z,16.94
2016-07-01T01:24:06.244Z,16.85
2016-07-01T01:24:16.257Z,16.94
2016-07-01T01:24:25.645Z,16.91
2016-07-01T01:24:36.255Z,16.88
2016-07-01T01:24:46.262Z,16.89
2016-07-01T01:24:56.283Z,16.93
2016-07-01T01:25:06.300Z,16.89
2016-07-01T01:25:16.278Z,16.88
2016-07-01T01:25:26.290Z,16.93
2016-07-01T01:25:35.648Z,16.89
2016-07-01T01:25:46.299Z,16.94
2016-07-01T01:25:56.303Z,16.93
2016-07-01T01:26:05.666Z,16.93
2016-07-01T01:26:16.311Z,16.94
2016-07-01T01:26:26.339Z,16.89
2016-07-01T01:26:35.707Z,16.91
2016-07-01T01:26:46.331Z,16.91
2016-07-01T01:26:56.346Z,16.93
2016-07-01T01:27:06.344Z,16.88
2016-07-01T01:27:16.349Z,16.93
2016-07-01T01:27:26.376Z,16.88
2016-07-01T01:27:36.383Z,16.89
2016-07-01T01:27:46.354Z,16.94
2016-07-01T01:27:56.368Z,16.88
2016-07-01T01:28:06.382Z,16.88
2016-07-01T01:28:15.739Z,16.93
2016-07-01T01:28:26.388Z,16.91
2016-07-01T01:28:36.401Z,16.89
2016-07-01T01:28:46.388Z,16.89
2016-07-01T01:28:55.764Z,16.86
2016-07-01T01:29:06.403Z,16.86
2016-07-01T01:29:16.413Z,16.86
2016-07-01T01:29:26.414Z,16.88
2016-07-01T01:29:36.429Z,16.98
2016-07-01T01:29:46.466Z,16.88
2016-07-01T01:29:55.796Z,16.88
2016-07-01T01:30:06.443Z,16.93
2016-07-01T01:30:16.455Z,16.89
2016-07-01T01:30:26.469Z,16.88
2016-07-01T01:30:36.460Z,16.94
2016-07-01T01:30:46.466Z,16.96
2016-07-01T01:30:55.822Z,16.89
2016-07-01T01:31:05.852Z,16.96
2016-07-01T01:31:16.479Z,16.89
2016-07-01T01:31:26.504Z,16.88
2016-07-01T01:31:36.495Z,16.93
2016-07-01T01:31:46.510Z,16.96
2016-07-01T01:31:56.506Z,16.94
2016-07-01T01:32:05.865Z,16.96
2016-07-01T01:32:16.520Z,16.97
2016-07-01T01:32:26.522Z,16.97
2016-07-01T01:32:36.539Z,16.96
2016-07-01T01:32:45.890Z,16.98
2016-07-01T01:32:56.541Z,17.03
2016-07-01T01:33:05.896Z,16.96
2016-07-01T01:33:15.911Z,17.01
2016-07-01T01:33:26.539Z,16.94
2016-07-01T01:33:36.558Z,17
2016-07-01T01:33:46.556Z,16.98
2016-07-01T01:33:55.927Z,17
2016-07-01T01:34:06.565Z,16.98
2016-07-01T01:34:16.571Z,16.98
2016-07-01T01:34:26.575Z,17.01
2016-07-01T01:34:36.602Z,16.88
2016-07-01T01:34:46.581Z,16.86
2016-07-01T01:34:56.599Z,16.96
2016-07-01T01:35:06.602Z,16.97
2016-07-01T01:35:15.975Z,17
2016-07-01T01:35:26.649Z,16.98
2016-07-01T01:35:36.613Z,16.89
2016-07-01T01:35:46.631Z,16.89
2016-07-01T01:35:55.985Z,16.89
2016-07-01T01:36:06.631Z,16.97
2016-07-01T01:36:16.657Z,16.91
2016-07-01T01:36:26.645Z,16.89
2016-07-01T01:36:36.647Z,16.97
2016-07-01T01:36:46.660Z,16.94
2016-07-01T01:36:56.656Z,16.93
2016-07-01T01:37:06.661Z,16.97
2016-07-01T01:37:16.666Z,16.93
2016-07-01T01:37:26.673Z,16.94
2016-07-01T01:37:36.679Z,16.96
2016-07-01T01:37:46.692Z,16.91
2016-07-01T01:37:56.691Z,16.94
2016-07-01T01:38:06.708Z,16.89
2016-07-01T01:38:16.727Z,16.93
2016-07-01T01:38:26.096Z,16.97
2016-07-01T01:38:36.713Z,16.96
2016-07-01T01:38:46.081Z,16.98
2016-07-01T01:38:56.725Z,16.89
2016-07-01T01:39:06.737Z,16.89
2016-07-01T01:39:16.110Z,16.89
2016-07-01T01:39:26.750Z,16.94
2016-07-01T01:39:36.739Z,16.93
2016-07-01T01:39:46.110Z,16.89
2016-07-01T01:39:56.748Z,16.88
2016-07-01T01:40:06.769Z,16.93
2016-07-01T01:40:16.766Z,16.86
2016-07-01T01:40:26.774Z,16.89
2016-07-01T01:40:36.148Z,16.94
2016-07-01T01:40:46.785Z,16.93
2016-07-01T01:40:56.824Z,16.97
2016-07-01T01:41:06.800Z,16.86
2016-07-01T01:41:16.166Z,16.89
2016-07-01T01:41:26.838Z,16.98
2016-07-01T01:41:36.820Z,16.98
2016-07-01T01:41:46.823Z,17.01
2016-07-01T01:41:56.830Z,16.96
2016-07-01T01:42:06.828Z,16.97
2016-07-01T01:42:16.209Z,16.94
2016-07-01T01:42:26.834Z,17.01
2016-07-01T01:42:36.834Z,16.93
2016-07-01T01:42:46.846Z,17.03
2016-07-01T01:42:56.216Z,16.97
2016-07-01T01:43:06.227Z,17
2016-07-01T01:43:16.223Z,16.93
2016-07-01T01:43:26.868Z,16.97
2016-07-01T01:43:36.871Z,16.97
2016-07-01T01:43:46.875Z,16.94
2016-07-01T01:43:56.913Z,17.01
2016-07-01T01:44:06.272Z,16.93
2016-07-01T01:44:16.895Z,16.98
2016-07-01T01:44:26.269Z,16.97
2016-07-01T01:44:36.267Z,16.97
2016-07-01T01:44:46.913Z,17.01
2016-07-01T01:44:56.909Z,17
2016-07-01T01:45:06.924Z,17.01
2016-07-01T01:45:16.940Z,16.98
2016-07-01T01:45:26.928Z,16.97
2016-07-01T01:45:36.946Z,16.96
2016-07-01T01:45:46.969Z,17.01
2016-07-01T01:45:56.954Z,16.97
2016-07-01T01:46:06.951Z,16.96
2016-07-01T01:46:16.961Z,17.01
2016-07-01T01:46:26.960Z,16.98
2016-07-01T01:46:36.327Z,16.93
2016-07-01T01:46:46.340Z,17.01
2016-07-01T01:46:56.989Z,17.03
2016-07-01T01:47:06.399Z,17.01
2016-07-01T01:47:16.985Z,17.01
2016-07-01T01:47:26.374Z,16.97
2016-07-01T01:47:37.013Z,16.98
2016-07-01T01:47:46.996Z,17.04
2016-07-01T01:47:56.408Z,17.03
2016-07-01T01:48:07.022Z,17
2016-07-01T01:48:17.032Z,17.07
2016-07-01T01:48:27.027Z,17
2016-07-01T01:48:37.034Z,17.01
2016-07-01T01:48:47.032Z,17.04
2016-07-01T01:48:56.405Z,17.01
2016-07-01T01:49:07.057Z,17.01
2016-07-01T01:49:17.051Z,17.01
2016-07-01T01:49:26.429Z,16.98
2016-07-01T01:49:37.063Z,17.01
2016-07-01T01:49:46.439Z,17.04
2016-07-01T01:49:57.078Z,17.04
2016-07-01T01:50:07.076Z,17.01
2016-07-01T01:50:17.089Z,17.01
2016-07-01T01:50:27.101Z,17.01
2016-07-01T01:50:37.092Z,17.01
2016-07-01T01:50:47.108Z,17.03
2016-07-01T01:50:57.102Z,16.97
2016-07-01T01:51:07.109Z,17.01
2016-07-01T01:51:17.121Z,17
2016-07-01T01:51:27.124Z,16.98
2016-07-01T01:51:37.118Z,17.01
2016-07-01T01:51:47.157Z,17.01
2016-07-01T01:51:57.139Z,17
2016-07-01T01:52:07.151Z,17.04
2016-07-01T01:52:17.173Z,17.06
2016-07-01T01:52:27.159Z,17.04
2016-07-01T01:52:37.158Z,17
2016-07-01T01:52:46.535Z,17.03
2016-07-01T01:52:57.185Z,17.03
2016-07-01T01:53:07.181Z,17.01
2016-07-01T01:53:16.543Z,17.04
2016-07-01T01:53:27.218Z,17.04
2016-07-01T01:53:36.612Z,16.96
2016-07-01T01:53:47.190Z,17.06
2016-07-01T01:53:57.202Z,17.03
2016-07-01T01:54:07.218Z,17.11
2016-07-01T01:54:17.229Z,17.07
2016-07-01T01:54:27.225Z,17.07
2016-07-01T01:54:37.228Z,17.07
2016-07-01T01:54:47.227Z,17.07
2016-07-01T01:54:56.602Z,17.06
2016-07-01T01:55:06.612Z,17.06
2016-07-01T01:55:17.242Z,17.04
2016-07-01T01:55:27.246Z,17.07
2016-07-01T01:55:37.269Z,17.06
2016-07-01T01:55:46.617Z,17.07
2016-07-01T01:55:57.261Z,17.06
2016-07-01T01:56:07.278Z,17.11
2016-07-01T01:56:17.284Z,17.08
2016-07-01T01:56:27.283Z,17.15
2016-07-01T01:56:37.295Z,17.12
2016-07-01T01:56:46.656Z,17.06
2016-07-01T01:56:57.304Z,17.15
2016-07-01T01:57:06.674Z,17.07
2016-07-01T01:57:17.320Z,17.12
2016-07-01T01:57:27.316Z,17.15
2016-07-01T01:57:37.323Z,17.07
2016-07-01T01:57:47.326Z,17.12
2016-07-01T01:57:56.690Z,17.14
2016-07-01T01:58:07.352Z,17.15
2016-07-01T01:58:17.357Z,17.15
2016-07-01T01:58:27.358Z,17.11
2016-07-01T01:58:37.352Z,17.08
2016-07-01T01:58:46.721Z,17.11
2016-07-01T01:58:57.378Z,17.11
2016-07-01T01:59:07.368Z,17.11
2016-07-01T01:59:17.375Z,17.08
2016-07-01T01:59:27.398Z,17.16
2016-07-01T01:59:37.388Z,17.15
2016-07-01T01:59:47.392Z,17.12
2016-07-01T01:59:57.391Z,17.14
2016-07-01T02:00:07.401Z,17.15
2016-07-01T02:00:17.422Z,17.14
2016-07-01T02:00:27.443Z,17.15
2016-07-01T02:00:37.418Z,17.14
2016-07-01T02:00:46.789Z,17.07
2016-07-01T02:00:56.839Z,17.12
2016-07-01T02:01:07.431Z,17.11
2016-07-01T02:01:17.438Z,17.14
2016-07-01T02:01:26.803Z,17.14
2016-07-01T02:01:37.527Z,17.14
2016-07-01T02:01:47.450Z,17.12
2016-07-01T02:01:57.470Z,17.15
2016-07-01T02:02:07.465Z,17.14
2016-07-01T02:02:17.469Z,17.07
2016-07-01T02:02:27.484Z,17.11
2016-07-01T02:02:37.487Z,17.06
2016-07-01T02:02:47.496Z,17.14
2016-07-01T02:02:56.859Z,17.11
2016-07-01T02:03:07.499Z,17.12
2016-07-01T02:03:17.498Z,17.18
2016-07-01T02:03:27.526Z,17.14
2016-07-01T02:03:37.516Z,17.14
2016-07-01T02:03:47.515Z,17.08
2016-07-01T02:03:56.909Z,17.14
2016-07-01T02:04:07.520Z,17.12
2016-07-01T02:04:17.541Z,17.15
2016-07-01T02:04:27.549Z,17.12
2016-07-01T02:04:37.557Z,17.14
2016-07-01T02:04:47.557Z,17.12
2016-07-01T02:04:57.554Z,17.18
2016-07-01T02:05:07.566Z,17.18
2016-07-01T02:05:17.569Z,17.11
2016-07-01T02:05:27.592Z,17.23
2016-07-01T02:05:37.581Z,17.14
2016-07-01T02:05:47.577Z,17.18
2016-07-01T02:05:57.585Z,17.08
2016-07-01T02:06:06.950Z,17.16
2016-07-01T02:06:17.595Z,17.12
2016-07-01T02:06:27.603Z,17.12
2016-07-01T02:06:37.605Z,17.15
2016-07-01T02:06:47.625Z,17.16
2016-07-01T02:06:57.626Z,17.16
2016-07-01T02:07:07.627Z,17.12
2016-07-01T02:07:17.630Z,17.15
2016-07-01T02:07:27.659Z,17.11
2016-07-01T02:07:37.670Z,17.15
2016-07-01T02:07:47.666Z,17.12
2016-07-01T02:07:57.015Z,17.08
2016-07-01T02:08:07.652Z,17.08
2016-07-01T02:08:17.666Z,17.07
2016-07-01T02:08:27.680Z,17.11
2016-07-01T02:08:37.034Z,17.14
2016-07-01T02:08:47.681Z,17.08
2016-07-01T02:08:57.050Z,17.07
2016-07-01T02:09:07.685Z,17.14
2016-07-01T02:09:17.715Z,17.14